sensor_id;sensor_type;location;lat;lon;timestamp;pressure;altitude;pressure_sealevel;temperature;humidity
19795;BME280;10057;59.402;17.866;2023-02-02T00:01:59;99904.34;;;-0.64;76.69
19795;BME280;10057;59.402;17.866;2023-02-02T00:04:33;99921.72;;;-0.63;76.70
19795;BME280;10057;59.402;17.866;2023-02-02T00:07:01;99918.25;;;-0.65;76.65
19795;BME280;10057;59.402;17.866;2023-02-02T00:09:31;99923.47;;;-0.65;76.62
19795;BME280;10057;59.402;17.866;2023-02-02T00:11:59;99926.94;;;-0.66;76.81
19795;BME280;10057;59.402;17.866;2023-02-02T00:14:26;99933.91;;;-0.65;76.79
19795;BME280;10057;59.402;17.866;2023-02-02T00:16:54;99942.56;;;-0.63;76.85
19795;BME280;10057;59.402;17.866;2023-02-02T00:19:26;99945.16;;;-0.66;76.79
19795;BME280;10057;59.402;17.866;2023-02-02T00:21:54;99944.31;;;-0.68;76.79
19795;BME280;10057;59.402;17.866;2023-02-02T00:24:22;99947.78;;;-0.69;76.66
19795;BME280;10057;59.402;17.866;2023-02-02T00:26:51;99948.69;;;-0.75;76.54
19795;BME280;10057;59.402;17.866;2023-02-02T00:29:22;99954.78;;;-0.77;76.92
19795;BME280;10057;59.402;17.866;2023-02-02T00:31:49;99962.59;;;-0.86;76.38
19795;BME280;10057;59.402;17.866;2023-02-02T00:34:17;99955.69;;;-0.90;76.68
19795;BME280;10057;59.402;17.866;2023-02-02T00:36:44;99960.00;;;-0.89;76.88
19795;BME280;10057;59.402;17.866;2023-02-02T00:39:19;99963.50;;;-0.90;76.72
19795;BME280;10057;59.402;17.866;2023-02-02T00:41:46;99973.91;;;-0.90;76.85
19795;BME280;10057;59.402;17.866;2023-02-02T00:44:13;99968.72;;;-0.93;77.16
19795;BME280;10057;59.402;17.866;2023-02-02T00:46:58;99963.50;;;-1.00;76.68
19795;BME280;10057;59.402;17.866;2023-02-02T00:49:25;99973.06;;;-1.05;76.80
19795;BME280;10057;59.402;17.866;2023-02-02T00:51:52;99971.38;;;-1.09;76.55
19795;BME280;10057;59.402;17.866;2023-02-02T00:54:19;99967.00;;;-1.10;76.58
19795;BME280;10057;59.402;17.866;2023-02-02T00:56:46;99973.97;;;-1.12;76.45
19795;BME280;10057;59.402;17.866;2023-02-02T00:59:12;99982.63;;;-1.13;76.55
19795;BME280;10057;59.402;17.866;2023-02-02T01:01:39;99985.25;;;-1.16;76.43
19795;BME280;10057;59.402;17.866;2023-02-02T01:04:06;99988.72;;;-1.22;76.59
19795;BME280;10057;59.402;17.866;2023-02-02T01:06:33;99990.47;;;-1.28;76.70
19795;BME280;10057;59.402;17.866;2023-02-02T01:08:59;99997.44;;;-1.33;76.40
19795;BME280;10057;59.402;17.866;2023-02-02T01:11:26;99998.28;;;-1.33;76.52
19795;BME280;10057;59.402;17.866;2023-02-02T01:13:53;99994.81;;;-1.36;76.96
19795;BME280;10057;59.402;17.866;2023-02-02T01:16:20;100004.34;;;-1.38;76.13
19795;BME280;10057;59.402;17.866;2023-02-02T01:18:48;100004.34;;;-1.51;76.60
19795;BME280;10057;59.402;17.866;2023-02-02T01:21:15;100009.56;;;-1.54;76.87
19795;BME280;10057;59.402;17.866;2023-02-02T01:23:42;100013.88;;;-1.59;76.68
19795;BME280;10057;59.402;17.866;2023-02-02T01:26:11;100013.03;;;-1.62;76.54
19795;BME280;10057;59.402;17.866;2023-02-02T01:28:38;100016.50;;;-1.63;76.44
19795;BME280;10057;59.402;17.866;2023-02-02T01:31:14;100012.13;;;-1.64;76.62
19795;BME280;10057;59.402;17.866;2023-02-02T01:33:41;100029.47;;;-1.68;76.82
19795;BME280;10057;59.402;17.866;2023-02-02T01:36:15;100029.47;;;-1.73;76.40
19795;BME280;10057;59.402;17.866;2023-02-02T01:38:42;100031.22;;;-1.76;76.35
19795;BME280;10057;59.402;17.866;2023-02-02T01:41:20;100040.75;;;-1.84;76.34
19795;BME280;10057;59.402;17.866;2023-02-02T01:43:49;100040.72;;;-1.86;76.45
19795;BME280;10057;59.402;17.866;2023-02-02T01:46:23;100046.81;;;-1.87;75.97
19795;BME280;10057;59.402;17.866;2023-02-02T01:48:52;100052.00;;;-1.85;76.36
19795;BME280;10057;59.402;17.866;2023-02-02T01:51:22;100062.38;;;-1.88;76.48
19795;BME280;10057;59.402;17.866;2023-02-02T01:53:53;100048.53;;;-1.91;76.04
19795;BME280;10057;59.402;17.866;2023-02-02T01:56:27;100060.66;;;-1.93;76.19
19795;BME280;10057;59.402;17.866;2023-02-02T01:58:54;100057.19;;;-1.95;75.85
19795;BME280;10057;59.402;17.866;2023-02-02T02:01:22;100064.09;;;-2.00;76.41
19795;BME280;10057;59.402;17.866;2023-02-02T02:03:48;100076.22;;;-1.99;76.77
19795;BME280;10057;59.402;17.866;2023-02-02T02:06:17;100083.16;;;-2.01;76.27
19795;BME280;10057;59.402;17.866;2023-02-02T02:09:02;100084.00;;;-2.02;76.61
19795;BME280;10057;59.402;17.866;2023-02-02T02:11:30;100086.59;;;-2.02;76.64
19795;BME280;10057;59.402;17.866;2023-02-02T02:14:03;100099.59;;;-2.03;76.34
19795;BME280;10057;59.402;17.866;2023-02-02T02:32:33;100128.09;;;-2.23;76.68
19795;BME280;10057;59.402;17.866;2023-02-02T02:35:11;100135.06;;;-2.22;76.01
19795;BME280;10057;59.402;17.866;2023-02-02T02:40:21;100140.25;;;-2.21;76.03
19795;BME280;10057;59.402;17.866;2023-02-02T02:42:57;100151.50;;;-2.20;75.76
19795;BME280;10057;59.402;17.866;2023-02-02T02:45:26;100151.47;;;-2.28;75.93
19795;BME280;10057;59.402;17.866;2023-02-02T02:47:54;100149.69;;;-2.36;75.64
19795;BME280;10057;59.402;17.866;2023-02-02T02:50:21;100148.81;;;-2.42;75.95
19795;BME280;10057;59.402;17.866;2023-02-02T02:52:55;100164.38;;;-2.43;75.98
19795;BME280;10057;59.402;17.866;2023-02-02T02:55:24;100170.41;;;-2.47;75.92
19795;BME280;10057;59.402;17.866;2023-02-02T03:06:20;100181.53;;;-2.64;76.34
19795;BME280;10057;59.402;17.866;2023-02-02T03:08:57;100180.59;;;-2.75;75.68
19795;BME280;10057;59.402;17.866;2023-02-02T03:11:25;100192.66;;;-2.83;76.24
19795;BME280;10057;59.402;17.866;2023-02-02T03:13:52;100194.38;;;-2.82;76.54
19795;BME280;10057;59.402;17.866;2023-02-02T03:16:18;100197.00;;;-2.79;76.56
19795;BME280;10057;59.402;17.866;2023-02-02T03:18:45;100197.94;;;-2.72;76.83
19795;BME280;10057;59.402;17.866;2023-02-02T03:21:12;100199.75;;;-2.62;76.91
19795;BME280;10057;59.402;17.866;2023-02-02T03:23:38;100198.06;;;-2.54;76.82
19795;BME280;10057;59.402;17.866;2023-02-02T03:26:05;100210.25;;;-2.44;76.78
19795;BME280;10057;59.402;17.866;2023-02-02T03:28:33;100217.25;;;-2.33;77.01
19795;BME280;10057;59.402;17.866;2023-02-02T03:31:00;100214.72;;;-2.24;76.44
19795;BME280;10057;59.402;17.866;2023-02-02T03:33:29;100231.25;;;-2.15;76.38
19795;BME280;10057;59.402;17.866;2023-02-02T03:35:56;100237.38;;;-2.08;77.04
19795;BME280;10057;59.402;17.866;2023-02-02T03:38:22;100236.53;;;-2.01;76.92
19795;BME280;10057;59.402;17.866;2023-02-02T03:40:50;100248.72;;;-1.94;76.65
19795;BME280;10057;59.402;17.866;2023-02-02T03:43:20;100241.81;;;-1.90;76.74
19795;BME280;10057;59.402;17.866;2023-02-02T03:45:53;100257.41;;;-1.85;76.37
19795;BME280;10057;59.402;17.866;2023-02-02T03:48:20;100260.91;;;-1.83;76.92
19795;BME280;10057;59.402;17.866;2023-02-02T03:50:47;100268.72;;;-1.80;76.65
19795;BME280;10057;59.402;17.866;2023-02-02T03:53:13;100277.38;;;-1.78;76.62
19795;BME280;10057;59.402;17.866;2023-02-02T03:55:40;100284.34;;;-1.71;76.66
19795;BME280;10057;59.402;17.866;2023-02-02T03:58:07;100281.78;;;-1.70;76.61
19795;BME280;10057;59.402;17.866;2023-02-02T04:00:33;100293.06;;;-1.66;76.10
19795;BME280;10057;59.402;17.866;2023-02-02T04:03:00;100293.94;;;-1.67;76.41
19795;BME280;10057;59.402;17.866;2023-02-02T04:05:27;100298.28;;;-1.63;76.78
19795;BME280;10057;59.402;17.866;2023-02-02T04:07:54;100303.53;;;-1.60;76.72
19795;BME280;10057;59.402;17.866;2023-02-02T04:10:20;100303.50;;;-1.61;76.30
19795;BME280;10057;59.402;17.866;2023-02-02T04:12:47;100308.72;;;-1.60;76.39
19795;BME280;10057;59.402;17.866;2023-02-02T04:15:14;100312.16;;;-1.62;75.89
19795;BME280;10057;59.402;17.866;2023-02-02T04:17:41;100320.84;;;-1.62;76.59
19795;BME280;10057;59.402;17.866;2023-02-02T04:20:08;100327.78;;;-1.61;76.24
19795;BME280;10057;59.402;17.866;2023-02-02T04:22:35;100322.56;;;-1.61;76.37
19795;BME280;10057;59.402;17.866;2023-02-02T04:25:01;100327.78;;;-1.61;76.67
19795;BME280;10057;59.402;17.866;2023-02-02T04:27:28;100333.84;;;-1.63;76.67
19795;BME280;10057;59.402;17.866;2023-02-02T04:29:57;100331.25;;;-1.63;76.59
19795;BME280;10057;59.402;17.866;2023-02-02T04:32:24;100345.16;;;-1.60;76.23
19795;BME280;10057;59.402;17.866;2023-02-02T04:34:51;100344.28;;;-1.60;76.25
19795;BME280;10057;59.402;17.866;2023-02-02T04:37:18;100343.38;;;-1.64;75.97
19795;BME280;10057;59.402;17.866;2023-02-02T04:39:44;100349.44;;;-1.65;76.13
19795;BME280;10057;59.402;17.866;2023-02-02T04:42:11;100350.31;;;-1.66;76.11
19795;BME280;10057;59.402;17.866;2023-02-02T04:44:38;100358.94;;;-1.73;75.79
19795;BME280;10057;59.402;17.866;2023-02-02T04:47:05;100360.59;;;-1.81;76.06
19795;BME280;10057;59.402;17.866;2023-02-02T04:49:31;100358.84;;;-1.84;76.15
19795;BME280;10057;59.402;17.866;2023-02-02T04:51:58;100369.22;;;-1.85;76.35
19795;BME280;10057;59.402;17.866;2023-02-02T04:54:25;100372.69;;;-1.86;76.60
19795;BME280;10057;59.402;17.866;2023-02-02T04:56:51;100374.44;;;-1.85;76.19
19795;BME280;10057;59.402;17.866;2023-02-02T04:59:18;100377.06;;;-1.82;76.33
19795;BME280;10057;59.402;17.866;2023-02-02T05:01:45;100384.00;;;-1.81;76.44
19795;BME280;10057;59.402;17.866;2023-02-02T05:04:11;100380.53;;;-1.82;76.08
19795;BME280;10057;59.402;17.866;2023-02-02T05:06:38;100390.09;;;-1.81;76.14
19795;BME280;10057;59.402;17.866;2023-02-02T05:09:05;100383.06;;;-1.89;76.39
19795;BME280;10057;59.402;17.866;2023-02-02T05:11:32;100393.41;;;-1.96;76.46
19795;BME280;10057;59.402;17.866;2023-02-02T05:13:58;100411.63;;;-1.96;76.18
19795;BME280;10057;59.402;17.866;2023-02-02T05:16:25;100407.31;;;-1.94;76.53
19795;BME280;10057;59.402;17.866;2023-02-02T05:18:56;100412.53;;;-1.94;75.94
19795;BME280;10057;59.402;17.866;2023-02-02T05:21:24;100422.91;;;-1.94;76.40
19795;BME280;10057;59.402;17.866;2023-02-02T05:23:51;100434.19;;;-1.92;76.42
19795;BME280;10057;59.402;17.866;2023-02-02T05:26:23;100440.22;;;-1.96;76.50
19795;BME280;10057;59.402;17.866;2023-02-02T05:28:51;100429.81;;;-1.96;76.35
19795;BME280;10057;59.402;17.866;2023-02-02T05:31:18;100439.34;;;-1.96;76.13
19795;BME280;10057;59.402;17.866;2023-02-02T05:33:46;100441.94;;;-2.01;76.34
19795;BME280;10057;59.402;17.866;2023-02-02T05:36:12;100446.19;;;-2.06;75.94
19795;BME280;10057;59.402;17.866;2023-02-02T05:38:39;100453.94;;;-2.13;76.08
19795;BME280;10057;59.402;17.866;2023-02-02T05:41:06;100460.81;;;-2.17;76.25
19795;BME280;10057;59.402;17.866;2023-02-02T05:43:33;100460.81;;;-2.17;76.46
19795;BME280;10057;59.402;17.866;2023-02-02T05:46:01;100457.47;;;-2.08;76.70
19795;BME280;10057;59.402;17.866;2023-02-02T05:48:28;100475.66;;;-2.08;76.47
19795;BME280;10057;59.402;17.866;2023-02-02T05:51:00;100473.00;;;-2.13;76.04
19795;BME280;10057;59.402;17.866;2023-02-02T05:53:30;100481.69;;;-2.09;76.58
19795;BME280;10057;59.402;17.866;2023-02-02T05:55:57;100483.47;;;-2.05;76.40
19795;BME280;10057;59.402;17.866;2023-02-02T05:58:24;100487.88;;;-1.98;76.78
19795;BME280;10057;59.402;17.866;2023-02-02T06:00:51;100497.44;;;-1.96;76.10
19795;BME280;10057;59.402;17.866;2023-02-02T06:03:21;100501.78;;;-1.93;76.67
19795;BME280;10057;59.402;17.866;2023-02-02T06:05:48;100501.81;;;-1.90;76.04
19795;BME280;10057;59.402;17.866;2023-02-02T06:08:15;100507.91;;;-1.89;75.91
19795;BME280;10057;59.402;17.866;2023-02-02T06:10:42;100499.19;;;-1.92;76.03
19795;BME280;10057;59.402;17.866;2023-02-02T06:13:08;100503.50;;;-1.98;75.62
19795;BME280;10057;59.402;17.866;2023-02-02T06:15:35;100512.91;;;-2.08;76.12
19795;BME280;10057;59.402;17.866;2023-02-02T06:18:02;100525.00;;;-2.10;76.20
19795;BME280;10057;59.402;17.866;2023-02-02T06:20:32;100524.03;;;-2.20;75.72
19795;BME280;10057;59.402;17.866;2023-02-02T06:22:58;100528.34;;;-2.25;75.92
19795;BME280;10057;59.402;17.866;2023-02-02T06:25:25;100530.84;;;-2.29;76.62
19795;BME280;10057;59.402;17.866;2023-02-02T06:27:56;100532.50;;;-2.38;76.35
19795;BME280;10057;59.402;17.866;2023-02-02T06:30:23;100537.69;;;-2.39;76.68
19795;BME280;10057;59.402;17.866;2023-02-02T06:32:50;100544.63;;;-2.38;76.21
19795;BME280;10057;59.402;17.866;2023-02-02T06:35:17;100543.72;;;-2.40;76.28
19795;BME280;10057;59.402;17.866;2023-02-02T06:37:44;100546.31;;;-2.42;76.06
19795;BME280;10057;59.402;17.866;2023-02-02T06:40:11;100559.22;;;-2.46;76.22
19795;BME280;10057;59.402;17.866;2023-02-02T06:42:39;100561.00;;;-2.45;77.03
19795;BME280;10057;59.402;17.866;2023-02-02T06:45:06;100560.16;;;-2.43;76.23
19795;BME280;10057;59.402;17.866;2023-02-02T06:47:33;100574.91;;;-2.42;76.44
19795;BME280;10057;59.402;17.866;2023-02-02T06:50:00;100582.69;;;-2.40;76.71
19795;BME280;10057;59.402;17.866;2023-02-02T06:52:27;100591.41;;;-2.36;76.03
19795;BME280;10057;59.402;17.866;2023-02-02T06:54:53;100600.97;;;-2.35;76.42
19795;BME280;10057;59.402;17.866;2023-02-02T06:57:20;100606.22;;;-2.32;76.55
19795;BME280;10057;59.402;17.866;2023-02-02T06:59:47;100618.34;;;-2.31;76.51
19795;BME280;10057;59.402;17.866;2023-02-02T07:02:14;100620.06;;;-2.30;76.82
19795;BME280;10057;59.402;17.866;2023-02-02T07:04:40;100623.53;;;-2.30;76.63
19795;BME280;10057;59.402;17.866;2023-02-02T07:07:07;100635.75;;;-2.24;76.57
19795;BME280;10057;59.402;17.866;2023-02-02T07:09:34;100633.19;;;-2.21;76.80
19795;BME280;10057;59.402;17.866;2023-02-02T07:12:01;100636.72;;;-2.16;76.09
19795;BME280;10057;59.402;17.866;2023-02-02T07:14:28;100639.41;;;-2.11;76.81
19795;BME280;10057;59.402;17.866;2023-02-02T07:16:54;100642.91;;;-2.08;76.22
19795;BME280;10057;59.402;17.866;2023-02-02T07:19:21;100649.84;;;-2.07;76.56
19795;BME280;10057;59.402;17.866;2023-02-02T07:21:48;100660.28;;;-2.04;76.73
19795;BME280;10057;59.402;17.866;2023-02-02T07:24:14;100662.88;;;-2.04;76.46
19795;BME280;10057;59.402;17.866;2023-02-02T07:26:41;100668.13;;;-2.01;76.65
19795;BME280;10057;59.402;17.866;2023-02-02T07:29:11;100675.97;;;-1.98;76.39
19795;BME280;10057;59.402;17.866;2023-02-02T07:31:39;100674.28;;;-1.94;76.23
19795;BME280;10057;59.402;17.866;2023-02-02T07:34:06;100676.84;;;-1.96;76.37
19795;BME280;10057;59.402;17.866;2023-02-02T07:36:33;100683.69;;;-2.04;75.76
19795;BME280;10057;59.402;17.866;2023-02-02T07:39:01;100682.72;;;-2.09;76.43
19795;BME280;10057;59.402;17.866;2023-02-02T07:41:32;100690.53;;;-2.09;76.36
19795;BME280;10057;59.402;17.866;2023-02-02T07:43:59;100686.97;;;-2.17;75.96
19795;BME280;10057;59.402;17.866;2023-02-02T07:46:26;100692.16;;;-2.19;76.43
19795;BME280;10057;59.402;17.866;2023-02-02T07:48:53;100703.47;;;-2.13;76.65
19795;BME280;10057;59.402;17.866;2023-02-02T07:51:24;100700.06;;;-2.09;76.07
19795;BME280;10057;59.402;17.866;2023-02-02T07:53:52;100712.97;;;-2.17;76.62
19795;BME280;10057;59.402;17.866;2023-02-02T07:56:25;100716.22;;;-2.30;75.92
19795;BME280;10057;59.402;17.866;2023-02-02T07:58:54;100725.59;;;-2.42;76.05
19795;BME280;10057;59.402;17.866;2023-02-02T08:01:21;100730.69;;;-2.48;76.03
19795;BME280;10057;59.402;17.866;2023-02-02T08:03:49;100729.88;;;-2.44;76.91
19795;BME280;10057;59.402;17.866;2023-02-02T08:06:26;100745.56;;;-2.38;76.77
19795;BME280;10057;59.402;17.866;2023-02-02T08:08:54;100748.13;;;-2.41;76.22
19795;BME280;10057;59.402;17.866;2023-02-02T08:11:23;100751.53;;;-2.45;76.62
19795;BME280;10057;59.402;17.866;2023-02-02T08:13:51;100756.72;;;-2.45;76.74
19795;BME280;10057;59.402;17.866;2023-02-02T08:16:19;100757.59;;;-2.46;76.40
19795;BME280;10057;59.402;17.866;2023-02-02T08:18:46;100761.91;;;-2.45;76.32
19795;BME280;10057;59.402;17.866;2023-02-02T08:21:14;100761.06;;;-2.44;76.00
19795;BME280;10057;59.402;17.866;2023-02-02T08:23:41;100774.75;;;-2.54;75.54
19795;BME280;10057;59.402;17.866;2023-02-02T08:26:18;100775.34;;;-2.70;76.01
19795;BME280;10057;59.402;17.866;2023-02-02T08:28:47;100776.81;;;-2.86;75.80
19795;BME280;10057;59.402;17.866;2023-02-02T08:31:17;100779.22;;;-2.97;76.35
19795;BME280;10057;59.402;17.866;2023-02-02T08:33:44;100782.63;;;-2.98;76.25
19795;BME280;10057;59.402;17.866;2023-02-02T08:36:17;100790.34;;;-3.02;76.21
19795;BME280;10057;59.402;17.866;2023-02-02T08:38:44;100780.81;;;-3.03;75.96
19795;BME280;10057;59.402;17.866;2023-02-02T08:41:14;100793.94;;;-2.97;76.10
19795;BME280;10057;59.402;17.866;2023-02-02T08:43:42;100808.53;;;-3.02;76.21
19795;BME280;10057;59.402;17.866;2023-02-02T08:46:10;100809.41;;;-3.02;76.36
19795;BME280;10057;59.402;17.866;2023-02-02T08:48:39;100815.56;;;-2.97;76.45
19795;BME280;10057;59.402;17.866;2023-02-02T08:51:08;100813.84;;;-2.96;75.70
19795;BME280;10057;59.402;17.866;2023-02-02T08:53:35;100815.50;;;-2.98;76.55
19795;BME280;10057;59.402;17.866;2023-02-02T08:56:08;100822.50;;;-2.96;76.03
19795;BME280;10057;59.402;17.866;2023-02-02T08:58:35;100822.56;;;-2.93;76.12
19795;BME280;10057;59.402;17.866;2023-02-02T09:01:16;100825.03;;;-2.99;76.02
19795;BME280;10057;59.402;17.866;2023-02-02T09:03:43;100831.75;;;-3.08;75.83
19795;BME280;10057;59.402;17.866;2023-02-02T09:06:16;100837.66;;;-3.17;75.78
19795;BME280;10057;59.402;17.866;2023-02-02T09:08:44;100841.94;;;-3.19;75.95
19795;BME280;10057;59.402;17.866;2023-02-02T09:11:12;100843.66;;;-3.18;75.80
19795;BME280;10057;59.402;17.866;2023-02-02T09:13:40;100846.38;;;-3.14;75.94
19795;BME280;10057;59.402;17.866;2023-02-02T09:16:09;100844.66;;;-3.13;76.14
19795;BME280;10057;59.402;17.866;2023-02-02T09:18:37;100847.38;;;-3.07;75.88
19795;BME280;10057;59.402;17.866;2023-02-02T09:21:06;100859.56;;;-3.03;75.86
19795;BME280;10057;59.402;17.866;2023-02-02T09:23:35;100861.50;;;-2.93;76.40
19795;BME280;10057;59.402;17.866;2023-02-02T09:28:41;100872.28;;;-2.73;76.11
19795;BME280;10057;59.402;17.866;2023-02-02T09:31:08;100862.97;;;-2.60;75.99
19795;BME280;10057;59.402;17.866;2023-02-02T09:33:36;100871.00;;;-2.48;76.25
19795;BME280;10057;59.402;17.866;2023-02-02T09:36:23;100873.88;;;-2.32;76.38
19795;BME280;10057;59.402;17.866;2023-02-02T09:38:52;100878.34;;;-2.24;76.08
19795;BME280;10057;59.402;17.866;2023-02-02T09:52:12;100896.31;;;-2.36;75.26
19795;BME280;10057;59.402;17.866;2023-02-02T09:54:42;100902.47;;;-2.32;76.03
19795;BME280;10057;59.402;17.866;2023-02-02T09:57:18;100906.06;;;-2.24;75.57
19795;BME280;10057;59.402;17.866;2023-02-02T09:59:48;100903.47;;;-2.23;75.49
19795;BME280;10057;59.402;17.866;2023-02-02T10:02:41;100906.88;;;-2.28;75.41
19795;BME280;10057;59.402;17.866;2023-02-02T10:05:15;100911.22;;;-2.26;75.67
19795;BME280;10057;59.402;17.866;2023-02-02T10:07:45;100913.13;;;-2.16;75.76
19795;BME280;10057;59.402;17.866;2023-02-02T10:10:31;100925.47;;;-2.04;75.46
19795;BME280;10057;59.402;17.866;2023-02-02T10:13:10;100929.78;;;-2.06;75.07
19795;BME280;10057;59.402;17.866;2023-02-02T10:18:40;100945.19;;;-2.17;75.04
19795;BME280;10057;59.402;17.866;2023-02-02T10:21:25;100945.16;;;-2.18;75.02
19795;BME280;10057;59.402;17.866;2023-02-02T10:23:53;100950.22;;;-2.26;75.03
19795;BME280;10057;59.402;17.866;2023-02-02T10:26:45;100948.41;;;-2.30;74.79
19795;BME280;10057;59.402;17.866;2023-02-02T10:37:11;100953.28;;;-2.48;74.03
19795;BME280;10057;59.402;17.866;2023-02-02T10:45:54;100954.53;;;-2.26;73.14
19795;BME280;10057;59.402;17.866;2023-02-02T10:48:26;100959.66;;;-2.32;73.59
19795;BME280;10057;59.402;17.866;2023-02-02T10:51:00;100963.94;;;-2.33;73.94
19795;BME280;10057;59.402;17.866;2023-02-02T10:53:29;100966.72;;;-2.25;73.74
19795;BME280;10057;59.402;17.866;2023-02-02T10:55:59;100977.16;;;-2.22;73.25
19795;BME280;10057;59.402;17.866;2023-02-02T10:58:32;100971.16;;;-2.18;74.30
19795;BME280;10057;59.402;17.866;2023-02-02T11:01:03;100979.97;;;-2.10;74.16
19795;BME280;10057;59.402;17.866;2023-02-02T11:03:33;100977.53;;;-2.01;74.09
19795;BME280;10057;59.402;17.866;2023-02-02T11:06:02;100982.06;;;-1.89;73.92
19795;BME280;10057;59.402;17.866;2023-02-02T11:08:53;100983.00;;;-1.85;72.62
19795;BME280;10057;59.402;17.866;2023-02-02T11:11:39;100987.78;;;-2.10;71.22
19795;BME280;10057;59.402;17.866;2023-02-02T11:16:35;100988.25;;;-2.29;72.60
19795;BME280;10057;59.402;17.866;2023-02-02T11:21:50;100994.50;;;-2.20;72.87
19795;BME280;10057;59.402;17.866;2023-02-02T11:24:40;101000.72;;;-2.13;73.07
19795;BME280;10057;59.402;17.866;2023-02-02T11:27:21;100999.97;;;-2.07;73.28
19795;BME280;10057;59.402;17.866;2023-02-02T11:29:57;101011.22;;;-2.08;72.06
19795;BME280;10057;59.402;17.866;2023-02-02T11:32:29;101017.75;;;-2.29;71.90
19795;BME280;10057;59.402;17.866;2023-02-02T11:37:31;101007.03;;;-2.46;72.26
19795;BME280;10057;59.402;17.866;2023-02-02T11:40:19;101013.22;;;-2.39;72.22
19795;BME280;10057;59.402;17.866;2023-02-02T11:42:46;101015.97;;;-2.31;72.75
19795;BME280;10057;59.402;17.866;2023-02-02T11:45:16;101004.78;;;-2.27;72.83
19795;BME280;10057;59.402;17.866;2023-02-02T11:47:44;101019.50;;;-2.26;72.14
19795;BME280;10057;59.402;17.866;2023-02-02T11:50:19;101027.97;;;-2.36;71.85
19795;BME280;10057;59.402;17.866;2023-02-02T11:52:48;101020.09;;;-2.43;72.10
19795;BME280;10057;59.402;17.866;2023-02-02T11:55:17;101021.84;;;-2.40;72.20
19795;BME280;10057;59.402;17.866;2023-02-02T12:01:00;101035.50;;;-2.50;72.02
19795;BME280;10057;59.402;17.866;2023-02-02T12:03:34;101040.53;;;-2.59;71.95
19795;BME280;10057;59.402;17.866;2023-02-02T12:06:38;101043.13;;;-2.59;72.21
19795;BME280;10057;59.402;17.866;2023-02-02T12:09:18;101050.19;;;-2.52;71.91
19795;BME280;10057;59.402;17.866;2023-02-02T12:14:53;101052.25;;;-2.36;72.57
19795;BME280;10057;59.402;17.866;2023-02-02T12:17:37;101062.03;;;-2.24;72.27
19795;BME280;10057;59.402;17.866;2023-02-02T12:20:19;101059.56;;;-2.17;72.19
19795;BME280;10057;59.402;17.866;2023-02-02T12:26:04;101068.63;;;-1.98;72.46
19795;BME280;10057;59.402;17.866;2023-02-02T12:28:41;101067.03;;;-1.89;72.16
19795;BME280;10057;59.402;17.866;2023-02-02T12:31:22;101061.09;;;-1.82;72.30
19795;BME280;10057;59.402;17.866;2023-02-02T12:39:08;101058.91;;;-1.59;72.08
19795;BME280;10057;59.402;17.866;2023-02-02T12:50:29;101056.91;;;-1.74;71.81
19795;BME280;10057;59.402;17.866;2023-02-02T12:55:47;101066.53;;;-1.69;71.58
19795;BME280;10057;59.402;17.866;2023-02-02T12:58:41;101072.47;;;-1.76;71.95
19795;BME280;10057;59.402;17.866;2023-02-02T13:07:34;101088.44;;;-2.03;70.79
19795;BME280;10057;59.402;17.866;2023-02-02T13:10:07;101095.97;;;-2.17;69.83
19795;BME280;10057;59.402;17.866;2023-02-02T13:12:42;101094.91;;;-2.26;70.18
19795;BME280;10057;59.402;17.866;2023-02-02T13:15:20;101098.19;;;-2.35;70.34
19795;BME280;10057;59.402;17.866;2023-02-02T13:17:59;101108.47;;;-2.40;70.69
19795;BME280;10057;59.402;17.866;2023-02-02T13:20:49;101105.78;;;-2.44;69.95
19795;BME280;10057;59.402;17.866;2023-02-02T13:23:27;101113.50;;;-2.49;70.05
19795;BME280;10057;59.402;17.866;2023-02-02T13:26:03;101116.03;;;-2.52;70.49
19795;BME280;10057;59.402;17.866;2023-02-02T13:28:39;101119.41;;;-2.54;69.99
19795;BME280;10057;59.402;17.866;2023-02-02T13:31:15;101120.22;;;-2.57;70.52
19795;BME280;10057;59.402;17.866;2023-02-02T13:33:48;101121.94;;;-2.59;70.40
19795;BME280;10057;59.402;17.866;2023-02-02T13:36:25;101121.06;;;-2.58;70.06
19795;BME280;10057;59.402;17.866;2023-02-02T13:38:58;101116.81;;;-2.56;70.40
19795;BME280;10057;59.402;17.866;2023-02-02T13:41:27;101129.00;;;-2.52;70.71
19795;BME280;10057;59.402;17.866;2023-02-02T13:44:19;101133.44;;;-2.46;70.94
19795;BME280;10057;59.402;17.866;2023-02-02T13:47:00;101143.03;;;-2.45;69.79
19795;BME280;10057;59.402;17.866;2023-02-02T13:49:35;101146.41;;;-2.48;69.73
19795;BME280;10057;59.402;17.866;2023-02-02T13:55:08;101148.31;;;-2.41;70.36
19795;BME280;10057;59.402;17.866;2023-02-02T13:57:58;101151.06;;;-2.33;70.15
19795;BME280;10057;59.402;17.866;2023-02-02T14:00:37;101158.97;;;-2.28;70.41
19795;BME280;10057;59.402;17.866;2023-02-02T14:03:39;101170.28;;;-2.26;70.16
19795;BME280;10057;59.402;17.866;2023-02-02T14:08:36;101167.75;;;-2.23;70.46
19795;BME280;10057;59.402;17.866;2023-02-02T14:11:07;101169.53;;;-2.22;70.35
19795;BME280;10057;59.402;17.866;2023-02-02T14:13:51;101174.66;;;-2.25;70.10
19795;BME280;10057;59.402;17.866;2023-02-02T14:19:05;101167.69;;;-2.26;70.20
19795;BME280;10057;59.402;17.866;2023-02-02T14:28:00;101189.47;;;-2.21;70.29
19795;BME280;10057;59.402;17.866;2023-02-02T14:30:37;101199.00;;;-2.22;70.59
19795;BME280;10057;59.402;17.866;2023-02-02T14:33:24;101204.91;;;-2.27;70.40
19795;BME280;10057;59.402;17.866;2023-02-02T14:35:58;101212.56;;;-2.33;70.49
19795;BME280;10057;59.402;17.866;2023-02-02T14:41:42;101220.13;;;-2.44;70.21
19795;BME280;10057;59.402;17.866;2023-02-02T14:44:30;101225.16;;;-2.52;69.86
19795;BME280;10057;59.402;17.866;2023-02-02T14:46:57;101229.34;;;-2.57;70.39
19795;BME280;10057;59.402;17.866;2023-02-02T14:49:26;101222.31;;;-2.61;70.21
19795;BME280;10057;59.402;17.866;2023-02-02T14:52:01;101231.81;;;-2.63;70.63
19795;BME280;10057;59.402;17.866;2023-02-02T14:54:34;101232.56;;;-2.67;70.00